createdAt,value
2023-05-03T03:01:41.555Z,6.00
2023-05-03T03:04:09.946Z,6.00
2023-05-03T03:06:37.181Z,6.00
2023-05-03T03:09:04.901Z,6.10
2023-05-03T03:11:32.186Z,6.00
2023-05-03T03:13:59.309Z,6.10
2023-05-03T03:16:26.606Z,6.00
2023-05-03T03:18:53.767Z,6.00
2023-05-03T03:21:21.014Z,6.00
2023-05-03T03:23:48.305Z,6.10
2023-05-03T03:26:15.454Z,5.90
2023-05-03T03:28:42.581Z,6.00
2023-05-03T03:31:09.772Z,6.00
2023-05-03T03:33:37.046Z,6.10
2023-05-03T03:36:06.662Z,6.10
2023-05-03T03:38:33.911Z,6.10
2023-05-03T03:41:01.190Z,6.10
2023-05-03T03:43:28.462Z,5.90
2023-05-03T03:45:55.768Z,5.80
2023-05-03T03:48:23.044Z,5.70
2023-05-03T03:50:50.601Z,5.80
2023-05-03T03:53:17.759Z,5.80
2023-05-03T03:55:44.939Z,5.70
2023-05-03T03:58:12.139Z,5.80
2023-05-03T04:00:40.038Z,5.70
2023-05-03T04:03:07.991Z,5.60
2023-05-03T04:05:35.689Z,5.40
2023-05-03T04:08:02.902Z,5.40
2023-05-03T04:10:30.054Z,5.30
2023-05-03T04:12:57.232Z,5.30
2023-05-03T04:15:24.474Z,5.50
2023-05-03T04:17:51.710Z,5.60
2023-05-03T04:20:19.195Z,5.70
2023-05-03T04:22:46.394Z,5.60
2023-05-03T04:25:14.172Z,5.80
2023-05-03T04:27:41.429Z,5.80
2023-05-03T04:30:09.709Z,5.90
2023-05-03T04:32:37.572Z,5.90
2023-05-03T04:35:09.479Z,5.60
2023-05-03T04:37:43.408Z,5.70
2023-05-03T04:40:12.395Z,5.80
2023-05-03T04:42:39.704Z,5.90
2023-05-03T04:45:09.622Z,6.00
2023-05-03T04:47:37.219Z,6.00
2023-05-03T04:50:05.098Z,6.10
2023-05-03T04:52:32.839Z,6.30
2023-05-03T04:54:59.979Z,6.10
2023-05-03T04:57:27.211Z,6.10
2023-05-03T04:59:54.938Z,6.10
2023-05-03T05:02:22.978Z,6.00
2023-05-03T05:04:50.166Z,5.90
2023-05-03T05:07:17.965Z,5.90
2023-05-03T05:09:45.611Z,5.90
2023-05-03T05:12:12.918Z,5.80
2023-05-03T05:14:40.116Z,5.80
2023-05-03T05:17:07.586Z,5.80
2023-05-03T05:19:35.750Z,5.90
2023-05-03T05:22:02.969Z,6.00
2023-05-03T05:24:30.159Z,6.30
2023-05-03T05:26:57.448Z,6.30
2023-05-03T05:29:24.669Z,6.50
2023-05-03T05:31:53.138Z,6.60
2023-05-03T05:34:20.448Z,6.50
2023-05-03T05:36:47.736Z,6.50
2023-05-03T05:39:14.932Z,6.60
2023-05-03T05:41:42.235Z,6.80
2023-05-03T05:44:09.517Z,6.70
2023-05-03T05:46:36.666Z,6.70
2023-05-03T05:49:04.046Z,6.80
2023-05-03T05:51:31.788Z,7.10
2023-05-03T05:53:58.979Z,7.10
2023-05-03T05:56:26.528Z,7.20
2023-05-03T05:58:53.753Z,7.30
2023-05-03T06:01:20.928Z,7.40
2023-05-03T06:03:48.174Z,7.90
2023-05-03T06:06:15.496Z,8.00
2023-05-03T06:08:42.619Z,8.10
2023-05-03T06:11:09.777Z,8.40
2023-05-03T06:13:38.728Z,8.60
2023-05-03T06:16:06.263Z,8.90
2023-05-03T06:18:33.441Z,9.00
2023-05-03T06:21:00.855Z,9.40
2023-05-03T06:23:28.158Z,9.60
2023-05-03T06:25:55.454Z,10.10
2023-05-03T06:28:22.686Z,9.90
2023-05-03T06:30:50.661Z,9.90
2023-05-03T06:33:18.022Z,10.00
2023-05-03T06:35:47.162Z,10.10
2023-05-03T06:38:14.331Z,10.60
2023-05-03T06:40:41.603Z,10.90
2023-05-03T06:43:08.777Z,11.40
2023-05-03T06:45:35.951Z,11.50
2023-05-03T06:48:03.469Z,11.20
2023-05-03T06:50:30.848Z,11.30
2023-05-03T06:52:58.029Z,12.10
2023-05-03T06:55:25.444Z,12.60
2023-05-03T06:57:53.031Z,13.20
2023-05-03T07:00:23.236Z,14.10
2023-05-03T07:02:50.456Z,14.80
2023-05-03T07:05:17.817Z,15.20
2023-05-03T07:07:45.067Z,15.60
2023-05-03T07:10:12.231Z,16.00
2023-05-03T07:12:39.446Z,15.60
2023-05-03T07:15:07.100Z,15.60
2023-05-03T07:17:34.417Z,16.10
2023-05-03T07:20:01.963Z,16.60
2023-05-03T07:22:29.642Z,17.20
2023-05-03T07:24:59.582Z,17.20
2023-05-03T07:27:27.133Z,17.80
2023-05-03T07:29:54.785Z,18.50
2023-05-03T07:32:22.368Z,18.80
2023-05-03T07:34:49.913Z,18.80
2023-05-03T07:37:17.454Z,18.20
2023-05-03T07:39:45.585Z,18.00
2023-05-03T07:42:12.764Z,17.90
2023-05-03T07:44:40.013Z,16.80
2023-05-03T07:47:07.199Z,16.80
2023-05-03T07:49:36.318Z,17.80
2023-05-03T07:52:03.584Z,18.70
2023-05-03T07:54:31.245Z,19.50
2023-05-03T07:56:58.492Z,19.60
2023-05-03T07:59:25.715Z,20.30
2023-05-03T08:01:52.961Z,18.90
2023-05-03T08:04:20.426Z,18.70
2023-05-03T08:06:47.975Z,17.90
2023-05-03T08:09:15.770Z,16.80
2023-05-03T08:11:44.315Z,16.40
2023-05-03T08:14:12.944Z,16.20
2023-05-03T08:16:40.416Z,16.70
2023-05-03T08:19:08.196Z,16.50
2023-05-03T08:21:35.575Z,16.40
2023-05-03T08:26:33.631Z,17.00
2023-05-03T08:29:03.249Z,17.20
2023-05-03T08:31:31.454Z,17.60
2023-05-03T08:33:58.724Z,18.00
2023-05-03T08:36:25.918Z,17.90
2023-05-03T08:38:53.055Z,17.30
2023-05-03T08:41:31.067Z,16.60
2023-05-03T08:43:59.773Z,16.10
2023-05-03T08:46:28.644Z,16.00
2023-05-03T08:48:56.300Z,16.20
2023-05-03T08:51:25.131Z,16.50
2023-05-03T08:53:52.798Z,16.40
2023-05-03T08:56:41.576Z,16.60
2023-05-03T08:59:11.689Z,16.80
2023-05-03T09:01:42.312Z,16.70
2023-05-03T09:04:11.689Z,16.70
2023-05-03T09:06:39.384Z,16.80
2023-05-03T09:09:08.461Z,16.80
2023-05-03T09:11:38.395Z,16.70
2023-05-03T09:14:17.225Z,16.50
2023-05-03T09:16:46.648Z,16.00
2023-05-03T09:19:16.083Z,15.80
2023-05-03T09:21:45.078Z,15.80
2023-05-03T09:24:22.344Z,15.90
2023-05-03T09:26:51.957Z,15.80
2023-05-03T09:29:31.056Z,15.80
2023-05-03T09:32:05.355Z,15.90
2023-05-03T09:34:33.416Z,15.70
2023-05-03T09:37:00.942Z,15.70
2023-05-03T09:39:28.114Z,15.90
2023-05-03T09:41:55.888Z,16.20
2023-05-03T09:44:42.027Z,16.40
2023-05-03T09:47:10.518Z,16.30
2023-05-03T09:49:38.821Z,16.50
2023-05-03T09:52:07.805Z,16.60
2023-05-03T09:54:35.461Z,16.40
2023-05-03T09:57:04.999Z,16.40
2023-05-03T09:59:33.642Z,16.20
2023-05-03T10:02:03.390Z,15.70
2023-05-03T10:04:39.570Z,15.80
2023-05-03T10:07:12.477Z,15.80
2023-05-03T10:09:43.082Z,16.10
2023-05-03T10:12:12.818Z,16.10
2023-05-03T10:14:42.620Z,15.90
2023-05-03T10:17:46.992Z,15.90
2023-05-03T10:20:22.902Z,15.80
2023-05-03T10:23:05.531Z,15.60
2023-05-03T10:25:34.711Z,15.70
2023-05-03T10:28:03.575Z,15.80
2023-05-03T10:30:32.546Z,15.90
2023-05-03T10:33:20.314Z,15.80
2023-05-03T10:35:54.417Z,15.80
2023-05-03T10:38:24.055Z,16.00
2023-05-03T10:40:52.184Z,16.00
2023-05-03T10:43:31.604Z,15.80
2023-05-03T10:46:05.980Z,15.90
2023-05-03T10:48:34.618Z,15.80
2023-05-03T10:51:30.634Z,16.00
2023-05-03T10:53:57.831Z,15.90
2023-05-03T10:56:24.985Z,16.10
2023-05-03T10:58:56.080Z,16.00
2023-05-03T11:01:24.774Z,15.90
2023-05-03T11:04:08.327Z,16.00
2023-05-03T11:06:37.436Z,16.00
2023-05-03T11:09:09.789Z,16.10
2023-05-03T11:11:43.390Z,16.40
2023-05-03T11:14:12.698Z,16.50
2023-05-03T11:16:47.769Z,16.70
2023-05-03T11:19:15.761Z,16.70
2023-05-03T11:21:43.581Z,16.60
2023-05-03T11:24:10.819Z,16.50
2023-05-03T11:26:38.838Z,16.40
2023-05-03T11:29:06.151Z,16.40
2023-05-03T11:31:35.576Z,16.80
2023-05-03T11:34:02.985Z,16.60
2023-05-03T11:36:31.137Z,16.40
2023-05-03T11:38:58.412Z,16.20
2023-05-03T11:41:26.547Z,16.40
2023-05-03T11:44:03.771Z,16.10
2023-05-03T11:46:38.105Z,16.30
2023-05-03T11:49:05.685Z,16.80
2023-05-03T11:51:33.013Z,17.20
2023-05-03T11:54:12.950Z,17.10
2023-05-03T11:56:54.919Z,17.20
2023-05-03T11:59:44.084Z,16.90
2023-05-03T12:02:15.551Z,16.40
2023-05-03T12:04:45.676Z,16.60
2023-05-03T12:07:16.941Z,16.60
2023-05-03T12:09:53.173Z,16.50
2023-05-03T12:12:31.465Z,16.50
2023-05-03T12:15:03.635Z,16.50
2023-05-03T12:17:37.136Z,16.60
2023-05-03T12:22:58.120Z,16.90
2023-05-03T12:25:28.069Z,17.10
2023-05-03T12:28:17.690Z,16.90
2023-05-03T12:30:46.917Z,17.10
2023-05-03T12:33:16.567Z,17.00
2023-05-03T12:35:47.716Z,16.60
2023-05-03T12:38:17.466Z,16.60
2023-05-03T12:40:45.821Z,16.40
2023-05-03T12:43:13.341Z,16.30
2023-05-03T12:45:41.272Z,16.40
2023-05-03T12:48:09.308Z,16.40
2023-05-03T12:50:38.647Z,16.40
2023-05-03T12:53:09.424Z,16.30
2023-05-03T12:55:43.145Z,16.10
2023-05-03T13:00:52.393Z,16.20
2023-05-03T13:03:33.316Z,16.10
2023-05-03T13:06:12.393Z,16.40
2023-05-03T13:08:49.504Z,16.70
2023-05-03T13:11:19.806Z,16.90
2023-05-03T13:13:47.416Z,16.60
2023-05-03T13:16:14.824Z,16.30
2023-05-03T13:18:43.056Z,16.00
2023-05-03T13:21:11.384Z,16.00
2023-05-03T13:23:38.639Z,16.10
2023-05-03T13:26:07.082Z,16.20
2023-05-03T13:28:34.363Z,16.30
2023-05-03T13:31:01.582Z,16.30
2023-05-03T13:33:29.492Z,16.50
2023-05-03T13:35:58.034Z,16.30
2023-05-03T13:38:25.585Z,16.30
2023-05-03T13:40:53.273Z,16.50
2023-05-03T13:43:20.726Z,16.50
2023-05-03T13:45:48.843Z,16.70
2023-05-03T13:48:18.251Z,16.60
2023-05-03T13:50:46.459Z,16.40
2023-05-03T13:53:13.661Z,16.30
2023-05-03T13:55:41.400Z,16.30
2023-05-03T13:58:08.629Z,16.20
2023-05-03T14:00:36.149Z,16.40
2023-05-03T14:03:03.736Z,16.90
2023-05-03T14:05:30.875Z,17.10
2023-05-03T14:07:58.393Z,17.20
2023-05-03T14:10:25.724Z,17.10
2023-05-03T14:12:53.325Z,17.10
2023-05-03T14:15:20.727Z,17.10
2023-05-03T14:17:48.054Z,17.50
2023-05-03T14:20:18.079Z,17.70
2023-05-03T14:22:45.848Z,17.70
2023-05-03T14:25:13.286Z,17.80
2023-05-03T14:27:40.560Z,17.90
2023-05-03T14:30:10.433Z,17.70
2023-05-03T14:32:37.681Z,17.50
2023-05-03T14:35:05.122Z,17.30
2023-05-03T14:37:33.329Z,17.40
2023-05-03T14:40:00.668Z,17.30
2023-05-03T14:42:30.824Z,17.30
2023-05-03T14:44:58.954Z,17.30
2023-05-03T14:47:26.336Z,17.70
2023-05-03T14:49:53.569Z,17.70
2023-05-03T14:52:21.007Z,17.50
2023-05-03T14:54:48.174Z,18.10
2023-05-03T14:57:15.442Z,18.00
2023-05-03T14:59:42.635Z,17.60
2023-05-03T15:02:10.219Z,17.40
2023-05-03T15:04:37.895Z,16.80
2023-05-03T15:07:06.496Z,16.70
2023-05-03T15:09:33.806Z,16.60
2023-05-03T15:12:02.003Z,16.90
2023-05-03T15:14:29.912Z,17.70
2023-05-03T15:16:57.181Z,17.70
2023-05-03T15:19:24.418Z,18.10
2023-05-03T15:21:52.017Z,18.30
2023-05-03T15:24:19.872Z,17.90
2023-05-03T15:26:47.164Z,17.60
2023-05-03T15:29:15.611Z,17.20
2023-05-03T15:31:43.711Z,17.10
2023-05-03T15:34:12.270Z,16.90
2023-05-03T15:36:40.570Z,17.40
2023-05-03T15:39:09.481Z,17.80
2023-05-03T15:41:36.772Z,18.00
2023-05-03T15:44:05.493Z,18.40
2023-05-03T15:46:34.341Z,18.40
2023-05-03T15:49:01.831Z,17.90
2023-05-03T15:51:29.366Z,17.60
2023-05-03T15:53:56.629Z,17.50
2023-05-03T15:56:24.010Z,17.30
2023-05-03T15:58:51.299Z,17.40
2023-05-03T16:01:18.768Z,17.30
2023-05-03T16:03:46.281Z,17.40
2023-05-03T16:06:16.751Z,17.40
2023-05-03T16:08:44.439Z,17.40
2023-05-03T16:11:12.797Z,17.40
2023-05-03T16:13:40.006Z,17.20
2023-05-03T16:16:07.440Z,17.10
2023-05-03T16:18:34.870Z,17.10
2023-05-03T16:21:02.708Z,17.10
2023-05-03T16:23:30.066Z,17.10
2023-05-03T16:25:57.453Z,17.00
2023-05-03T16:28:24.724Z,16.80
2023-05-03T16:30:52.060Z,16.90
2023-05-03T16:33:19.421Z,16.70
2023-05-03T16:35:46.639Z,16.70
2023-05-03T16:38:13.911Z,16.60
2023-05-03T16:40:42.387Z,16.50
2023-05-03T16:43:10.380Z,16.40
2023-05-03T16:45:37.842Z,16.50
2023-05-03T16:48:07.501Z,16.60
2023-05-03T16:50:37.601Z,16.60
2023-05-03T16:53:04.844Z,16.40
2023-05-03T16:55:32.050Z,16.40
2023-05-03T16:58:00.107Z,16.30
2023-05-03T17:00:30.247Z,16.20
2023-05-03T17:02:57.574Z,16.30
2023-05-03T17:05:26.161Z,16.20
2023-05-03T17:07:53.371Z,16.20
2023-05-03T17:10:20.636Z,16.10
2023-05-03T17:12:48.175Z,16.10
2023-05-03T17:15:16.793Z,16.10
2023-05-03T17:17:44.118Z,16.00
2023-05-03T17:20:12.908Z,15.80
2023-05-03T17:22:40.114Z,15.70
2023-05-03T17:25:07.929Z,15.70
2023-05-03T17:27:36.332Z,15.70
2023-05-03T17:30:05.659Z,15.60
2023-05-03T17:32:33.264Z,15.60
2023-05-03T17:35:00.624Z,15.50
2023-05-03T17:37:28.594Z,15.50
2023-05-03T17:39:55.932Z,15.50
2023-05-03T17:42:23.095Z,15.30
2023-05-03T17:44:54.911Z,15.20
2023-05-03T17:47:23.005Z,15.20
2023-05-03T17:49:50.612Z,15.10
2023-05-03T17:52:17.813Z,15.10
2023-05-03T17:54:46.196Z,15.00
2023-05-03T17:57:13.368Z,15.00
2023-05-03T17:59:40.823Z,15.10
2023-05-03T18:02:08.245Z,14.90
2023-05-03T18:04:35.585Z,14.70
2023-05-03T18:07:03.103Z,14.70
2023-05-03T18:09:32.895Z,14.60
2023-05-03T18:12:01.534Z,14.60
2023-05-03T18:14:29.004Z,14.40
2023-05-03T18:16:56.173Z,14.50
2023-05-03T18:19:23.919Z,14.40
2023-05-03T18:21:51.418Z,14.20
2023-05-03T18:24:18.758Z,14.20
2023-05-03T18:26:47.112Z,14.20
2023-05-03T18:29:14.765Z,14.10
2023-05-03T18:31:42.055Z,14.00
2023-05-03T18:34:09.199Z,13.90
2023-05-03T18:36:36.854Z,13.80
2023-05-03T18:39:04.817Z,13.80
2023-05-03T18:41:32.214Z,13.70
2023-05-03T18:43:59.464Z,13.50
2023-05-03T18:46:27.020Z,13.40
2023-05-03T18:48:54.319Z,13.40
2023-05-03T18:51:21.623Z,13.30
2023-05-03T18:53:49.836Z,13.30
2023-05-03T18:56:17.041Z,13.20
2023-05-03T18:58:46.655Z,13.20
2023-05-03T19:01:14.017Z,13.10
2023-05-03T19:03:41.361Z,13.10
2023-05-03T19:06:08.664Z,13.00
2023-05-03T19:08:35.897Z,13.00
2023-05-03T19:11:10.967Z,12.90
2023-05-03T19:13:38.314Z,12.80
2023-05-03T19:16:05.966Z,12.60
2023-05-03T19:18:33.267Z,12.50
2023-05-03T19:21:01.389Z,12.40
2023-05-03T19:23:28.583Z,12.40
2023-05-03T19:25:56.636Z,12.30
2023-05-03T19:28:23.823Z,12.30
2023-05-03T19:30:54.331Z,12.10
2023-05-03T19:33:21.905Z,12.10
2023-05-03T19:35:49.126Z,12.00
2023-05-03T19:38:16.315Z,11.90
2023-05-03T19:40:56.665Z,11.80
2023-05-03T19:43:24.237Z,11.70
2023-05-03T19:45:51.833Z,11.70
2023-05-03T19:48:19.091Z,11.60
2023-05-03T19:50:47.500Z,11.60
2023-05-03T19:53:14.794Z,11.50
2023-05-03T19:55:42.091Z,11.50
2023-05-03T19:58:09.214Z,11.40
2023-05-03T20:00:36.374Z,11.30
2023-05-03T20:03:03.601Z,11.20
2023-05-03T20:05:30.955Z,11.20
2023-05-03T20:07:58.193Z,11.20
2023-05-03T20:10:25.547Z,11.10
2023-05-03T20:12:52.795Z,11.10
2023-05-03T20:15:20.091Z,11.00
2023-05-03T20:17:47.356Z,11.00
2023-05-03T20:20:16.314Z,10.90
2023-05-03T20:22:43.566Z,10.80
2023-05-03T20:25:10.857Z,10.80
2023-05-03T20:27:38.041Z,10.90
2023-05-03T20:30:06.563Z,10.90
2023-05-03T20:32:36.368Z,10.80
2023-05-03T20:35:04.988Z,10.70
2023-05-03T20:37:32.687Z,10.70
2023-05-03T20:40:00.256Z,10.70
2023-05-03T20:42:27.469Z,10.70
2023-05-03T20:44:54.690Z,10.50
2023-05-03T20:47:22.636Z,10.50
2023-05-03T20:49:49.876Z,10.40
2023-05-03T20:52:17.384Z,10.40
2023-05-03T20:54:45.653Z,10.30
2023-05-03T20:57:15.828Z,10.30
2023-05-03T20:59:45.918Z,10.30
